createdAt,value
2023-04-28T00:00:29.470Z,32.40
2023-04-28T00:03:17.229Z,33.43
2023-04-28T00:05:44.433Z,32.10
2023-04-28T00:08:12.435Z,31.23
2023-04-28T00:10:39.597Z,34.43
2023-04-28T00:13:07.185Z,31.37
2023-04-28T00:15:34.171Z,33.00
2023-04-28T00:18:01.429Z,30.80
2023-04-28T00:20:28.393Z,27.13
2023-04-28T00:22:55.525Z,27.63
2023-04-28T00:25:22.512Z,29.93
2023-04-28T00:27:50.305Z,27.53
2023-04-28T00:30:17.425Z,29.93
2023-04-28T00:32:44.679Z,28.37
2023-04-28T00:35:11.564Z,31.60
2023-04-28T00:37:39.579Z,33.17
2023-04-28T00:40:07.154Z,31.53
2023-04-28T00:42:34.337Z,29.53
2023-04-28T00:45:05.946Z,34.57
2023-04-28T00:47:35.040Z,32.33
2023-04-28T00:50:02.478Z,33.55
2023-04-28T00:52:29.937Z,32.30
2023-04-28T00:54:58.062Z,41.50
2023-04-28T00:57:25.210Z,30.30
2023-04-28T00:59:52.539Z,32.07
2023-04-28T01:02:20.236Z,32.33
2023-04-28T01:04:48.334Z,38.90
2023-04-28T01:07:15.459Z,28.80
2023-04-28T01:09:42.355Z,35.27
2023-04-28T01:12:09.517Z,34.40
2023-04-28T01:14:36.445Z,34.63
2023-04-28T01:17:04.073Z,29.23
2023-04-28T01:19:31.113Z,32.37
2023-04-28T01:21:58.308Z,29.77
2023-04-28T01:24:25.236Z,28.90
2023-04-28T01:26:52.335Z,34.57
2023-04-28T01:29:19.168Z,32.30
2023-04-28T01:31:46.453Z,31.03
2023-04-28T01:34:13.681Z,29.30
2023-04-28T01:36:41.215Z,39.13
2023-04-28T01:39:08.320Z,29.40
2023-04-28T01:41:35.494Z,31.03
2023-04-28T01:44:02.370Z,29.80
2023-04-28T01:46:29.596Z,38.70
2023-04-28T01:48:56.520Z,33.00
2023-04-28T01:51:23.601Z,31.03
2023-04-28T01:53:50.491Z,31.13
2023-04-28T01:56:17.587Z,35.70
2023-04-28T01:58:44.526Z,30.90
2023-04-28T02:01:11.736Z,31.30
2023-04-28T02:03:38.709Z,30.13
2023-04-28T02:06:06.185Z,33.37
2023-04-28T02:08:33.022Z,28.97
2023-04-28T02:11:01.765Z,33.83
2023-04-28T02:13:28.687Z,34.58
2023-04-28T02:15:56.132Z,34.93
2023-04-28T02:18:23.005Z,33.27
2023-04-28T02:20:50.247Z,32.03
2023-04-28T02:23:17.148Z,35.13
2023-04-28T02:25:44.311Z,34.93
2023-04-28T02:28:11.172Z,32.70
2023-04-28T02:30:38.362Z,34.57
2023-04-28T02:33:05.229Z,34.10
2023-04-28T02:35:32.447Z,32.00
2023-04-28T02:37:59.305Z,31.80
2023-04-28T02:43:22.012Z,34.33
2023-04-28T02:45:49.165Z,30.60
2023-04-28T02:48:16.111Z,38.30
2023-04-28T02:50:43.289Z,33.20
2023-04-28T02:53:10.116Z,32.90
2023-04-28T02:55:37.298Z,29.47
2023-04-28T02:58:04.222Z,27.67
2023-04-28T03:00:31.473Z,31.40
2023-04-28T03:02:58.821Z,31.63
2023-04-28T03:05:26.416Z,28.67
2023-04-28T03:07:53.477Z,31.37
2023-04-28T03:10:20.738Z,31.77
2023-04-28T03:12:47.608Z,31.47
2023-04-28T03:15:14.805Z,28.63
2023-04-28T03:17:43.189Z,29.57
2023-04-28T03:20:11.139Z,28.30
2023-04-28T03:22:38.057Z,32.60
2023-04-28T03:25:05.963Z,32.03
2023-04-28T03:27:32.941Z,23.23
2023-04-28T03:30:00.171Z,31.33
2023-04-28T03:32:27.039Z,26.10
2023-04-28T03:34:54.196Z,29.20
2023-04-28T03:37:21.078Z,28.67
2023-04-28T03:39:48.295Z,27.20
2023-04-28T03:42:15.206Z,28.67
2023-04-28T03:44:42.375Z,39.17
2023-04-28T03:47:09.295Z,22.87
2023-04-28T03:49:36.484Z,26.90
2023-04-28T03:52:04.539Z,33.93
2023-04-28T03:54:31.886Z,30.75
2023-04-28T03:56:59.583Z,25.97
2023-04-28T03:59:26.961Z,34.30
2023-04-28T04:01:53.822Z,27.00
2023-04-28T04:04:21.490Z,24.87
2023-04-28T04:06:48.868Z,28.70
2023-04-28T04:09:16.296Z,23.63
2023-04-28T04:11:43.181Z,29.17
2023-04-28T04:14:10.593Z,28.03
2023-04-28T04:16:37.640Z,25.77
2023-04-28T04:19:04.760Z,28.33
2023-04-28T04:21:32.006Z,23.67
2023-04-28T04:23:59.146Z,22.37
2023-04-28T04:26:26.063Z,27.93
2023-04-28T04:28:53.498Z,20.30
2023-04-28T04:31:20.382Z,27.90
2023-04-28T04:33:47.765Z,22.13
2023-04-28T04:36:14.865Z,23.53
2023-04-28T04:38:41.986Z,24.40
2023-04-28T04:41:08.854Z,20.87
2023-04-28T04:43:36.016Z,24.50
2023-04-28T04:46:04.121Z,18.07
2023-04-28T04:48:31.399Z,21.58
2023-04-28T04:50:58.217Z,23.83
2023-04-28T04:53:25.324Z,24.23
2023-04-28T04:55:52.217Z,27.60
2023-04-28T04:58:19.556Z,25.63
2023-04-28T05:00:46.500Z,23.43
2023-04-28T05:03:13.845Z,20.80
2023-04-28T05:05:40.892Z,22.27
2023-04-28T05:08:08.009Z,21.90
2023-04-28T05:10:34.861Z,23.20
2023-04-28T05:13:02.047Z,18.17
2023-04-28T05:15:29.244Z,19.08
2023-04-28T05:17:57.083Z,29.30
2023-04-28T05:20:24.020Z,20.77
2023-04-28T05:22:51.800Z,26.40
2023-04-28T05:25:18.611Z,20.92
2023-04-28T05:27:45.839Z,20.23
2023-04-28T05:30:12.966Z,19.73
2023-04-28T05:32:40.108Z,19.15
2023-04-28T05:35:07.339Z,18.77
2023-04-28T05:37:34.532Z,23.35
2023-04-28T05:40:01.341Z,21.77
2023-04-28T05:42:28.554Z,23.17
2023-04-28T05:44:55.543Z,25.65
2023-04-28T05:47:22.841Z,22.90
2023-04-28T05:49:49.767Z,25.48
2023-04-28T05:52:16.896Z,17.50
2023-04-28T05:54:43.695Z,18.67
2023-04-28T05:57:11.318Z,15.90
2023-04-28T05:59:38.589Z,18.05
2023-04-28T06:02:05.783Z,13.35
2023-04-28T06:04:33.079Z,15.30
2023-04-28T06:07:00.576Z,14.23
2023-04-28T06:09:27.442Z,13.98
2023-04-28T06:11:54.592Z,14.77
2023-04-28T06:14:23.022Z,11.88
2023-04-28T06:16:51.234Z,14.88
2023-04-28T06:19:19.085Z,13.00
2023-04-28T06:21:46.676Z,13.68
2023-04-28T06:24:13.605Z,12.88
2023-04-28T06:26:40.758Z,10.55
2023-04-28T06:29:07.653Z,12.13
2023-04-28T06:31:34.820Z,9.95
2023-04-28T06:34:01.900Z,11.45
2023-04-28T06:36:29.104Z,12.30
2023-04-28T06:38:56.107Z,11.65
2023-04-28T06:41:23.592Z,9.80
2023-04-28T06:43:51.099Z,10.25
2023-04-28T06:46:18.306Z,10.07
2023-04-28T06:48:45.186Z,9.30
2023-04-28T06:51:12.444Z,12.45
2023-04-28T06:53:39.336Z,8.38
2023-04-28T06:56:07.821Z,7.05
2023-04-28T06:58:37.120Z,6.88
2023-04-28T07:01:05.820Z,11.23
2023-04-28T07:03:32.932Z,9.27
2023-04-28T07:06:00.284Z,9.30
2023-04-28T07:08:27.759Z,9.73
2023-04-28T07:10:54.922Z,11.00
2023-04-28T07:13:22.155Z,9.60
2023-04-28T07:15:49.948Z,7.07
2023-04-28T07:18:16.953Z,10.75
2023-04-28T07:20:44.148Z,9.10
2023-04-28T07:23:11.500Z,13.57
2023-04-28T07:25:40.146Z,8.15
2023-04-28T07:28:07.905Z,10.63
2023-04-28T07:30:35.824Z,10.75
2023-04-28T07:33:02.991Z,9.98
2023-04-28T07:35:30.365Z,7.57
2023-04-28T07:37:58.133Z,10.10
2023-04-28T07:40:25.308Z,7.37
2023-04-28T07:42:52.208Z,12.10
2023-04-28T07:45:19.463Z,11.90
2023-04-28T07:47:46.417Z,8.18
2023-04-28T07:50:13.604Z,11.30
2023-04-28T07:52:40.457Z,11.48
2023-04-28T07:55:08.828Z,21.08
2023-04-28T07:57:35.932Z,11.88
2023-04-28T08:00:03.872Z,8.98
2023-04-28T08:02:31.128Z,38.15
2023-04-28T08:04:58.614Z,20.40
2023-04-28T08:07:26.225Z,14.38
2023-04-28T08:09:53.891Z,9.32
2023-04-28T08:12:22.051Z,9.38
2023-04-28T08:14:49.269Z,9.30
2023-04-28T08:17:17.701Z,10.38
2023-04-28T08:19:46.422Z,11.32
2023-04-28T08:22:13.821Z,10.20
2023-04-28T08:24:41.187Z,9.85
2023-04-28T08:27:08.371Z,7.28
2023-04-28T08:29:35.610Z,8.10
2023-04-28T08:32:02.522Z,7.93
2023-04-28T08:34:29.991Z,8.52
2023-04-28T08:36:57.005Z,8.60
2023-04-28T08:39:26.551Z,8.50
2023-04-28T08:41:53.964Z,10.77
2023-04-28T08:44:21.159Z,9.88
2023-04-28T08:46:50.295Z,8.35
2023-04-28T08:49:18.985Z,7.45
2023-04-28T08:51:57.429Z,11.25
2023-04-28T08:54:30.759Z,9.30
2023-04-28T08:56:58.765Z,8.20
2023-04-28T08:59:26.465Z,17.27
2023-04-28T09:01:53.478Z,9.55
2023-04-28T09:04:21.602Z,9.43
2023-04-28T09:06:48.979Z,8.93
2023-04-28T09:09:22.029Z,7.88
2023-04-28T09:11:53.730Z,6.78
2023-04-28T09:14:21.080Z,7.30
2023-04-28T09:16:48.434Z,11.45
2023-04-28T09:19:19.522Z,11.63
2023-04-28T09:21:57.270Z,7.85
2023-04-28T09:24:42.962Z,18.48
2023-04-28T09:27:12.270Z,7.28
2023-04-28T09:29:39.658Z,7.50
2023-04-28T09:32:17.933Z,13.00
2023-04-28T09:34:49.379Z,8.10
2023-04-28T09:37:17.073Z,8.15
2023-04-28T09:39:51.903Z,15.00
2023-04-28T09:42:41.254Z,9.57
2023-04-28T09:45:11.339Z,8.15
2023-04-28T09:47:41.136Z,7.13
2023-04-28T09:50:12.638Z,6.65
2023-04-28T09:52:49.306Z,5.78
2023-04-28T09:55:17.852Z,6.50
2023-04-28T09:57:47.298Z,9.60
2023-04-28T10:00:17.231Z,7.80
2023-04-28T10:02:44.994Z,4.80
2023-04-28T10:05:13.366Z,5.07
2023-04-28T10:07:40.663Z,19.02
2023-04-28T10:10:08.825Z,13.32
2023-04-28T10:12:38.722Z,5.10
2023-04-28T10:15:08.463Z,4.53
2023-04-28T10:17:36.865Z,5.10
2023-04-28T10:20:05.419Z,6.78
2023-04-28T10:22:44.316Z,8.25
2023-04-28T10:25:12.090Z,15.80
2023-04-28T10:27:41.709Z,5.22
2023-04-28T10:30:28.379Z,6.18
2023-04-28T10:33:15.038Z,14.27
2023-04-28T10:35:44.761Z,8.13
2023-04-28T10:38:15.503Z,6.93
2023-04-28T10:40:46.157Z,29.20
2023-04-28T10:43:27.281Z,7.38
2023-04-28T10:45:57.469Z,9.85
2023-04-28T10:48:34.354Z,11.32
2023-04-28T10:51:12.772Z,5.03
2023-04-28T10:53:45.712Z,7.32
2023-04-28T10:56:13.750Z,6.50
2023-04-28T10:58:46.378Z,7.45
2023-04-28T11:01:24.256Z,4.10
2023-04-28T11:04:00.340Z,4.57
2023-04-28T11:06:32.365Z,10.40
2023-04-28T11:09:02.046Z,10.68
2023-04-28T11:11:35.236Z,9.05
2023-04-28T11:14:18.187Z,4.97
2023-04-28T11:17:03.094Z,5.57
2023-04-28T11:19:31.626Z,8.38
2023-04-28T11:24:31.508Z,11.32
2023-04-28T11:26:59.492Z,7.20
2023-04-28T11:29:37.999Z,6.05
2023-04-28T11:32:10.934Z,6.05
2023-04-28T11:34:38.408Z,8.57
2023-04-28T11:37:09.290Z,5.00
2023-04-28T11:39:36.336Z,6.10
2023-04-28T11:42:10.563Z,4.55
2023-04-28T11:44:38.173Z,7.30
2023-04-28T11:47:07.320Z,6.18
2023-04-28T11:49:46.988Z,5.82
2023-04-28T11:52:14.334Z,5.82
2023-04-28T11:54:43.998Z,3.65
2023-04-28T11:57:18.665Z,5.93
2023-04-28T11:59:46.455Z,4.25
2023-04-28T12:02:13.977Z,6.07
2023-04-28T12:04:42.930Z,7.70
2023-04-28T12:07:18.512Z,6.88
2023-04-28T12:10:05.027Z,8.13
2023-04-28T12:15:05.725Z,6.53
2023-04-28T12:17:38.004Z,7.55
2023-04-28T12:20:07.304Z,9.15
2023-04-28T12:22:48.644Z,9.48
2023-04-28T12:25:17.793Z,11.02
2023-04-28T12:28:00.794Z,6.30
2023-04-28T12:30:28.778Z,6.43
2023-04-28T12:32:56.988Z,4.32
2023-04-28T12:35:25.712Z,10.10
2023-04-28T12:40:20.733Z,6.03
2023-04-28T12:42:48.081Z,5.60
2023-04-28T12:45:16.651Z,10.30
2023-04-28T12:47:44.169Z,7.43
2023-04-28T12:50:11.069Z,8.10
2023-04-28T12:52:38.205Z,8.68
2023-04-28T12:55:05.543Z,11.98
2023-04-28T12:57:32.858Z,6.60
2023-04-28T12:59:59.928Z,10.52
2023-04-28T13:02:27.236Z,6.80
2023-04-28T13:04:54.317Z,7.30
2023-04-28T13:07:22.061Z,11.10
2023-04-28T13:09:48.941Z,5.63
2023-04-28T13:12:16.136Z,10.00
2023-04-28T13:14:43.039Z,10.98
2023-04-28T13:17:10.862Z,11.60
2023-04-28T13:19:38.948Z,20.38
2023-04-28T13:22:06.855Z,11.35
2023-04-28T13:24:33.774Z,11.48
2023-04-28T13:27:01.029Z,10.63
2023-04-28T13:29:27.947Z,7.75
2023-04-28T13:31:55.197Z,15.65
2023-04-28T13:34:22.124Z,17.05
2023-04-28T13:36:51.066Z,8.63
2023-04-28T13:39:20.334Z,11.90
2023-04-28T13:41:50.443Z,16.98
2023-04-28T13:44:17.952Z,14.23
2023-04-28T13:46:46.086Z,9.27
2023-04-28T13:49:13.484Z,4.60
2023-04-28T13:51:41.073Z,7.03
2023-04-28T13:54:09.001Z,11.13
2023-04-28T13:56:36.700Z,6.43
2023-04-28T13:59:03.880Z,12.98
2023-04-28T14:01:31.304Z,6.93
2023-04-28T14:03:58.623Z,7.50
2023-04-28T14:06:27.452Z,7.40
2023-04-28T14:08:54.455Z,7.00
2023-04-28T14:11:22.655Z,5.18
2023-04-28T14:13:49.591Z,5.90
2023-04-28T14:16:16.926Z,7.20
2023-04-28T14:18:43.860Z,9.48
2023-04-28T14:21:11.106Z,11.35
2023-04-28T14:23:38.585Z,8.85
2023-04-28T14:26:06.946Z,6.55
2023-04-28T14:28:33.901Z,8.27
2023-04-28T14:31:06.262Z,14.45
2023-04-28T14:33:33.256Z,16.38
2023-04-28T14:36:02.197Z,7.63
2023-04-28T14:38:30.794Z,11.23
2023-04-28T14:40:58.349Z,6.80
2023-04-28T14:43:25.737Z,6.05
2023-04-28T14:45:53.543Z,8.20
2023-04-28T14:48:20.860Z,11.27
2023-04-28T14:50:48.068Z,8.20
2023-04-28T14:53:14.944Z,7.80
2023-04-28T14:55:42.348Z,9.57
2023-04-28T14:58:09.158Z,8.50
2023-04-28T15:00:36.554Z,10.55
2023-04-28T15:03:04.168Z,8.75
2023-04-28T15:05:31.532Z,7.35
2023-04-28T15:07:58.835Z,7.90
2023-04-28T15:10:32.763Z,7.25
2023-04-28T15:12:59.632Z,8.57
2023-04-28T15:15:27.583Z,8.13
2023-04-28T15:18:00.551Z,8.25
2023-04-28T15:20:30.604Z,10.82
2023-04-28T15:22:57.869Z,8.68
2023-04-28T15:25:26.210Z,7.03
2023-04-28T15:27:53.087Z,10.35
2023-04-28T15:30:20.330Z,6.50
2023-04-28T15:32:49.222Z,7.30
2023-04-28T15:35:16.718Z,7.28
2023-04-28T15:37:45.331Z,10.55
2023-04-28T15:40:14.740Z,8.52
2023-04-28T15:42:43.016Z,8.77
2023-04-28T15:45:11.228Z,10.23
2023-04-28T15:47:39.133Z,7.90
2023-04-28T15:50:09.062Z,9.85
2023-04-28T15:57:32.143Z,6.80
2023-04-28T15:59:59.352Z,7.15
2023-04-28T16:02:26.380Z,9.13
2023-04-28T16:04:53.867Z,9.82
2023-04-28T16:07:20.915Z,9.93
2023-04-28T16:09:48.044Z,8.48
2023-04-28T16:12:15.003Z,8.88
2023-04-28T16:14:42.453Z,7.72
2023-04-28T16:17:09.325Z,12.52
2023-04-28T16:19:36.804Z,10.25
2023-04-28T16:22:03.746Z,14.40
2023-04-28T16:24:31.734Z,10.00
2023-04-28T16:26:58.565Z,8.60
2023-04-28T16:29:26.566Z,8.18
2023-04-28T16:31:53.609Z,7.97
2023-04-28T16:34:20.731Z,12.02
2023-04-28T16:36:47.685Z,11.07
2023-04-28T16:39:15.938Z,11.55
2023-04-28T16:41:42.844Z,10.48
2023-04-28T16:44:10.176Z,10.05
2023-04-28T16:46:37.337Z,12.63
2023-04-28T16:49:04.704Z,11.82
2023-04-28T16:51:35.022Z,9.38
2023-04-28T16:54:02.346Z,11.48
2023-04-28T16:56:29.915Z,8.68
2023-04-28T16:58:56.997Z,12.73
2023-04-28T17:01:23.957Z,15.60
2023-04-28T17:03:51.478Z,18.00
2023-04-28T17:06:18.458Z,17.17
2023-04-28T17:08:45.588Z,13.85
2023-04-28T17:11:16.616Z,15.27
2023-04-28T17:13:43.739Z,17.63
2023-04-28T17:16:11.606Z,23.67
2023-04-28T17:18:38.792Z,32.10
2023-04-28T17:21:05.975Z,22.05
2023-04-28T17:23:33.101Z,24.65
2023-04-28T17:25:59.989Z,16.00
2023-04-28T17:28:28.129Z,12.23
2023-04-28T17:30:55.928Z,11.32
2023-04-28T17:33:23.124Z,15.43
2023-04-28T17:35:50.170Z,21.27
2023-04-28T17:38:17.384Z,31.13
2023-04-28T17:40:48.700Z,54.80
2023-04-28T17:43:16.403Z,67.15
2023-04-28T17:45:43.859Z,29.05
2023-04-28T17:48:12.552Z,54.08
2023-04-28T17:50:39.445Z,45.60
2023-04-28T17:53:06.839Z,52.05
2023-04-28T17:55:33.733Z,67.75
2023-04-28T17:58:00.907Z,179.35
2023-04-28T18:00:27.749Z,175.27
2023-04-28T18:02:55.740Z,78.57
2023-04-28T18:05:24.440Z,96.50
2023-04-28T18:07:52.205Z,132.32
2023-04-28T18:10:19.114Z,107.28
2023-04-28T18:12:46.476Z,122.53
2023-04-28T18:15:13.616Z,130.27
2023-04-28T18:17:40.905Z,144.02
2023-04-28T18:20:08.611Z,91.63
2023-04-28T18:22:35.885Z,105.40
2023-04-28T18:25:02.866Z,124.87
2023-04-28T18:27:30.057Z,100.13
2023-04-28T18:29:56.930Z,88.33
2023-04-28T18:32:24.072Z,107.27
2023-04-28T18:34:51.112Z,107.83
2023-04-28T18:37:18.551Z,102.57
2023-04-28T18:39:45.434Z,92.80
2023-04-28T18:42:13.284Z,96.13
2023-04-28T18:44:41.397Z,105.77
2023-04-28T18:47:08.915Z,112.33
2023-04-28T18:49:38.162Z,140.57
2023-04-28T18:52:05.358Z,133.30
2023-04-28T18:54:32.988Z,132.47
2023-04-28T18:57:00.193Z,284.30
2023-04-28T18:59:27.110Z,235.60
2023-04-28T19:01:54.298Z,244.67
2023-04-28T19:04:22.456Z,270.43
2023-04-28T19:06:49.854Z,314.50
2023-04-28T19:09:17.170Z,134.23
2023-04-28T19:11:44.268Z,118.77
2023-04-28T19:14:11.177Z,104.97
2023-04-28T19:16:38.394Z,115.17
2023-04-28T19:19:06.565Z,119.80
2023-04-28T19:21:41.367Z,117.97
2023-04-28T19:24:08.288Z,99.97
2023-04-28T19:26:35.523Z,89.60
2023-04-28T19:29:02.432Z,79.80
2023-04-28T19:31:29.637Z,74.67
2023-04-28T19:33:57.868Z,70.13
2023-04-28T19:36:25.311Z,56.80
2023-04-28T19:38:52.181Z,186.10
2023-04-28T19:41:20.905Z,84.77
2023-04-28T19:43:47.733Z,56.25
2023-04-28T19:46:16.399Z,69.33
2023-04-28T19:48:46.023Z,64.38
2023-04-28T19:51:14.517Z,55.47
2023-04-28T19:53:41.394Z,58.13
2023-04-28T19:56:10.197Z,68.23
2023-04-28T19:58:37.749Z,64.65
2023-04-28T20:01:08.446Z,60.47
2023-04-28T20:03:36.145Z,53.13
2023-04-28T20:06:03.991Z,47.40
2023-04-28T20:08:30.915Z,40.20
2023-04-28T20:10:58.233Z,49.23
2023-04-28T20:13:26.085Z,49.43
2023-04-28T20:15:55.155Z,47.10
2023-04-28T20:18:22.101Z,59.93
2023-04-28T20:20:52.656Z,66.87
2023-04-28T20:23:19.638Z,50.73
2023-04-28T20:25:47.144Z,57.23
2023-04-28T20:28:14.419Z,63.57
2023-04-28T20:30:44.643Z,67.53
2023-04-28T20:33:11.468Z,54.27
2023-04-28T20:35:38.625Z,49.47
2023-04-28T20:38:05.470Z,55.47
2023-04-28T20:40:33.539Z,54.43
2023-04-28T20:43:02.245Z,54.63
2023-04-28T20:45:32.473Z,57.03
2023-04-28T20:47:59.356Z,56.93
2023-04-28T20:50:28.344Z,54.73
2023-04-28T20:52:55.165Z,60.28
2023-04-28T20:55:23.029Z,56.27
2023-04-28T20:57:49.982Z,53.13
2023-04-28T21:00:17.712Z,67.60
2023-04-28T21:02:45.433Z,76.23
2023-04-28T21:05:12.934Z,72.87
2023-04-28T21:07:39.776Z,77.67
2023-04-28T21:10:07.570Z,82.87
2023-04-28T21:12:34.430Z,79.47
2023-04-28T21:15:01.713Z,85.87
2023-04-28T21:17:28.570Z,94.97
2023-04-28T21:19:57.420Z,95.70
2023-04-28T21:22:25.042Z,82.88
2023-04-28T21:24:54.594Z,83.13
2023-04-28T21:27:21.842Z,81.40
2023-04-28T21:29:49.191Z,80.73
2023-04-28T21:32:16.326Z,79.10
2023-04-28T21:34:47.556Z,78.07
2023-04-28T21:37:14.589Z,81.37
2023-04-28T21:39:41.702Z,77.03
2023-04-28T21:42:08.818Z,66.37
2023-04-28T21:44:35.956Z,61.67
2023-04-28T21:47:02.828Z,63.37
2023-04-28T21:49:29.970Z,50.93
2023-04-28T21:51:56.789Z,59.00
2023-04-28T21:54:24.384Z,53.07
2023-04-28T21:56:52.702Z,49.30
2023-04-28T21:59:20.118Z,52.40
2023-04-28T22:01:47.028Z,51.60
2023-04-28T22:04:15.290Z,85.83
2023-04-28T22:06:42.364Z,70.40
2023-04-28T22:09:09.468Z,73.37
2023-04-28T22:11:36.367Z,55.83
2023-04-28T22:14:03.625Z,57.37
2023-04-28T22:16:30.556Z,58.40
2023-04-28T22:18:57.874Z,64.20
2023-04-28T22:21:25.564Z,96.57
2023-04-28T22:23:52.727Z,74.63
2023-04-28T22:26:20.818Z,65.17
2023-04-28T22:28:48.739Z,57.83
2023-04-28T22:31:15.637Z,64.37
2023-04-28T22:33:43.494Z,70.43
2023-04-28T22:36:10.513Z,69.47
2023-04-28T22:38:37.829Z,72.87
2023-04-28T22:41:05.415Z,56.90
2023-04-28T22:43:32.548Z,77.40
2023-04-28T22:45:59.411Z,67.00
2023-04-28T22:48:26.655Z,68.47
2023-04-28T22:50:53.539Z,65.23
2023-04-28T22:53:20.798Z,41.50
2023-04-28T22:55:47.697Z,57.03
2023-04-28T22:58:14.788Z,54.87
2023-04-28T23:00:41.641Z,55.13
2023-04-28T23:03:08.995Z,51.27
2023-04-28T23:05:38.988Z,55.50
2023-04-28T23:08:06.129Z,56.47
2023-04-28T23:10:33.012Z,64.10
2023-04-28T23:13:00.157Z,51.77
2023-04-28T23:15:27.046Z,46.37
2023-04-28T23:17:54.281Z,39.80
2023-04-28T23:20:21.177Z,44.77
2023-04-28T23:22:48.477Z,45.83
2023-04-28T23:25:15.369Z,46.43
2023-04-28T23:27:42.555Z,47.93
2023-04-28T23:30:10.087Z,49.90
2023-04-28T23:32:37.501Z,51.57
2023-04-28T23:35:04.668Z,48.60
2023-04-28T23:37:32.199Z,51.97
2023-04-28T23:39:59.125Z,54.40
2023-04-28T23:42:27.026Z,58.03
2023-04-28T23:44:53.952Z,57.10
2023-04-28T23:47:21.266Z,45.33
2023-04-28T23:49:48.338Z,43.13
2023-04-28T23:52:15.679Z,43.30
2023-04-28T23:54:42.540Z,36.27
2023-04-28T23:57:09.610Z,38.07
2023-04-28T23:59:36.935Z,39.27
